sensor_id;sensor_type;location;lat;lon;timestamp;P1;durP1;ratioP1;P2;durP2;ratioP2
42146;SDS011;27815;43.410;11.852;2022-12-22T00:02:55;48.28;;;33.17;;
42146;SDS011;27815;43.410;11.852;2022-12-22T00:07:38;50.97;;;35.83;;
42146;SDS011;27815;43.410;11.852;2022-12-22T00:12:21;55.42;;;39.97;;
42146;SDS011;27815;43.410;11.852;2022-12-22T00:16:43;59.55;;;38.20;;
42146;SDS011;27815;43.410;11.852;2022-12-22T00:21:08;55.03;;;36.10;;
42146;SDS011;27815;43.410;11.852;2022-12-22T00:25:45;53.15;;;37.05;;
42146;SDS011;27815;43.410;11.852;2022-12-22T00:30:11;48.13;;;32.58;;
42146;SDS011;27815;43.410;11.852;2022-12-22T00:34:39;50.83;;;34.70;;
42146;SDS011;27815;43.410;11.852;2022-12-22T00:39:11;53.10;;;34.45;;
42146;SDS011;27815;43.410;11.852;2022-12-22T00:43:48;54.17;;;35.40;;
42146;SDS011;27815;43.410;11.852;2022-12-22T00:48:16;59.63;;;37.55;;
42146;SDS011;27815;43.410;11.852;2022-12-22T00:52:42;46.08;;;30.55;;
42146;SDS011;27815;43.410;11.852;2022-12-22T00:57:05;46.80;;;31.83;;
42146;SDS011;27815;43.410;11.852;2022-12-22T01:01:35;44.58;;;30.80;;
42146;SDS011;27815;43.410;11.852;2022-12-22T01:05:59;45.03;;;29.60;;
42146;SDS011;27815;43.410;11.852;2022-12-22T01:10:24;43.72;;;28.15;;
42146;SDS011;27815;43.410;11.852;2022-12-22T01:14:46;47.42;;;30.45;;
42146;SDS011;27815;43.410;11.852;2022-12-22T01:19:16;42.97;;;28.45;;
42146;SDS011;27815;43.410;11.852;2022-12-22T01:23:42;41.72;;;25.13;;
42146;SDS011;27815;43.410;11.852;2022-12-22T01:28:17;33.20;;;21.60;;
42146;SDS011;27815;43.410;11.852;2022-12-22T01:32:49;31.85;;;21.13;;
42146;SDS011;27815;43.410;11.852;2022-12-22T01:37:11;37.97;;;22.90;;
42146;SDS011;27815;43.410;11.852;2022-12-22T01:41:34;29.38;;;20.13;;
42146;SDS011;27815;43.410;11.852;2022-12-22T01:45:56;42.75;;;26.83;;
42146;SDS011;27815;43.410;11.852;2022-12-22T01:50:18;52.30;;;31.30;;
42146;SDS011;27815;43.410;11.852;2022-12-22T01:54:50;46.83;;;30.38;;
42146;SDS011;27815;43.410;11.852;2022-12-22T01:59:12;46.55;;;28.30;;
42146;SDS011;27815;43.410;11.852;2022-12-22T02:03:47;49.00;;;31.45;;
42146;SDS011;27815;43.410;11.852;2022-12-22T02:08:13;44.00;;;26.38;;
42146;SDS011;27815;43.410;11.852;2022-12-22T02:12:45;44.20;;;29.98;;
42146;SDS011;27815;43.410;11.852;2022-12-22T02:26:47;43.17;;;29.70;;
42146;SDS011;27815;43.410;11.852;2022-12-22T02:31:12;42.85;;;28.90;;
42146;SDS011;27815;43.410;11.852;2022-12-22T02:35:50;44.42;;;29.02;;
42146;SDS011;27815;43.410;11.852;2022-12-22T02:40:24;43.60;;;30.05;;
42146;SDS011;27815;43.410;11.852;2022-12-22T02:45:10;47.05;;;31.15;;
42146;SDS011;27815;43.410;11.852;2022-12-22T02:49:52;49.17;;;30.40;;
42146;SDS011;27815;43.410;11.852;2022-12-22T02:54:22;49.37;;;32.17;;
42146;SDS011;27815;43.410;11.852;2022-12-22T02:58:58;48.47;;;32.17;;
42146;SDS011;27815;43.410;11.852;2022-12-22T03:03:22;44.83;;;29.48;;
42146;SDS011;27815;43.410;11.852;2022-12-22T03:07:46;39.70;;;27.10;;
42146;SDS011;27815;43.410;11.852;2022-12-22T03:12:11;40.20;;;27.30;;
42146;SDS011;27815;43.410;11.852;2022-12-22T03:16:33;42.08;;;27.90;;
42146;SDS011;27815;43.410;11.852;2022-12-22T03:20:55;45.55;;;31.52;;
42146;SDS011;27815;43.410;11.852;2022-12-22T03:25:19;43.45;;;29.10;;
42146;SDS011;27815;43.410;11.852;2022-12-22T03:29:45;45.70;;;29.92;;
42146;SDS011;27815;43.410;11.852;2022-12-22T03:33:53;43.63;;;29.50;;
42146;SDS011;27815;43.410;11.852;2022-12-22T03:37:56;38.45;;;26.70;;
42146;SDS011;27815;43.410;11.852;2022-12-22T03:42:04;46.35;;;31.38;;
42146;SDS011;27815;43.410;11.852;2022-12-22T03:46:26;44.25;;;29.38;;
42146;SDS011;27815;43.410;11.852;2022-12-22T03:50:35;44.35;;;27.20;;
42146;SDS011;27815;43.410;11.852;2022-12-22T03:54:41;46.50;;;28.45;;
42146;SDS011;27815;43.410;11.852;2022-12-22T03:58:49;41.35;;;27.40;;
42146;SDS011;27815;43.410;11.852;2022-12-22T04:02:52;46.45;;;30.92;;
42146;SDS011;27815;43.410;11.852;2022-12-22T04:07:03;47.22;;;28.85;;
42146;SDS011;27815;43.410;11.852;2022-12-22T04:11:16;44.47;;;31.00;;
42146;SDS011;27815;43.410;11.852;2022-12-22T04:15:38;45.92;;;30.48;;
42146;SDS011;27815;43.410;11.852;2022-12-22T04:19:43;44.25;;;28.55;;
42146;SDS011;27815;43.410;11.852;2022-12-22T04:23:49;43.37;;;29.63;;
42146;SDS011;27815;43.410;11.852;2022-12-22T04:27:57;43.42;;;27.98;;
42146;SDS011;27815;43.410;11.852;2022-12-22T04:32:01;40.20;;;26.95;;
42146;SDS011;27815;43.410;11.852;2022-12-22T04:36:04;42.47;;;28.83;;
42146;SDS011;27815;43.410;11.852;2022-12-22T04:40:13;44.53;;;28.30;;
42146;SDS011;27815;43.410;11.852;2022-12-22T04:44:17;37.17;;;27.13;;
42146;SDS011;27815;43.410;11.852;2022-12-22T04:48:22;38.63;;;25.98;;
42146;SDS011;27815;43.410;11.852;2022-12-22T04:52:28;42.70;;;28.15;;
42146;SDS011;27815;43.410;11.852;2022-12-22T04:56:31;42.72;;;28.63;;
42146;SDS011;27815;43.410;11.852;2022-12-22T05:00:35;43.63;;;28.00;;
42146;SDS011;27815;43.410;11.852;2022-12-22T05:04:40;41.45;;;27.45;;
42146;SDS011;27815;43.410;11.852;2022-12-22T05:08:44;44.00;;;28.42;;
42146;SDS011;27815;43.410;11.852;2022-12-22T05:12:53;38.22;;;25.73;;
42146;SDS011;27815;43.410;11.852;2022-12-22T05:17:18;39.55;;;26.48;;
42146;SDS011;27815;43.410;11.852;2022-12-22T05:21:25;42.45;;;28.63;;
42146;SDS011;27815;43.410;11.852;2022-12-22T05:25:28;41.47;;;27.30;;
42146;SDS011;27815;43.410;11.852;2022-12-22T05:29:37;38.30;;;26.83;;
42146;SDS011;27815;43.410;11.852;2022-12-22T05:33:44;39.47;;;26.67;;
42146;SDS011;27815;43.410;11.852;2022-12-22T05:37:48;34.30;;;23.25;;
42146;SDS011;27815;43.410;11.852;2022-12-22T05:41:50;37.65;;;25.88;;
42146;SDS011;27815;43.410;11.852;2022-12-22T05:45:53;38.22;;;26.83;;
42146;SDS011;27815;43.410;11.852;2022-12-22T05:49:56;42.38;;;26.98;;
42146;SDS011;27815;43.410;11.852;2022-12-22T05:53:59;39.22;;;23.98;;
42146;SDS011;27815;43.410;11.852;2022-12-22T05:58:03;36.95;;;25.05;;
42146;SDS011;27815;43.410;11.852;2022-12-22T06:02:08;38.95;;;25.17;;
42146;SDS011;27815;43.410;11.852;2022-12-22T06:06:12;40.67;;;28.25;;
42146;SDS011;27815;43.410;11.852;2022-12-22T06:10:15;39.33;;;23.92;;
42146;SDS011;27815;43.410;11.852;2022-12-22T06:14:18;41.58;;;26.55;;
42146;SDS011;27815;43.410;11.852;2022-12-22T06:18:21;38.80;;;24.88;;
42146;SDS011;27815;43.410;11.852;2022-12-22T06:22:24;35.78;;;25.15;;
42146;SDS011;27815;43.410;11.852;2022-12-22T06:26:31;37.03;;;26.15;;
42146;SDS011;27815;43.410;11.852;2022-12-22T06:30:34;42.28;;;27.38;;
42146;SDS011;27815;43.410;11.852;2022-12-22T06:34:38;44.53;;;27.77;;
42146;SDS011;27815;43.410;11.852;2022-12-22T06:38:41;39.22;;;24.75;;
42146;SDS011;27815;43.410;11.852;2022-12-22T06:42:45;41.08;;;26.65;;
42146;SDS011;27815;43.410;11.852;2022-12-22T06:47:10;43.53;;;27.65;;
42146;SDS011;27815;43.410;11.852;2022-12-22T06:51:13;40.70;;;26.48;;
42146;SDS011;27815;43.410;11.852;2022-12-22T06:55:16;43.50;;;27.83;;
42146;SDS011;27815;43.410;11.852;2022-12-22T06:59:19;37.95;;;27.20;;
42146;SDS011;27815;43.410;11.852;2022-12-22T07:03:23;40.25;;;27.70;;
42146;SDS011;27815;43.410;11.852;2022-12-22T07:07:26;37.42;;;25.90;;
42146;SDS011;27815;43.410;11.852;2022-12-22T07:11:29;42.80;;;28.98;;
42146;SDS011;27815;43.410;11.852;2022-12-22T07:15:32;41.88;;;26.30;;
42146;SDS011;27815;43.410;11.852;2022-12-22T07:19:35;37.80;;;26.10;;
42146;SDS011;27815;43.410;11.852;2022-12-22T07:23:38;38.63;;;24.67;;
42146;SDS011;27815;43.410;11.852;2022-12-22T07:27:41;42.05;;;26.50;;
42146;SDS011;27815;43.410;11.852;2022-12-22T07:31:44;43.75;;;29.90;;
42146;SDS011;27815;43.410;11.852;2022-12-22T07:36:10;40.92;;;28.65;;
42146;SDS011;27815;43.410;11.852;2022-12-22T07:40:15;41.90;;;30.27;;
42146;SDS011;27815;43.410;11.852;2022-12-22T07:44:36;42.53;;;27.23;;
42146;SDS011;27815;43.410;11.852;2022-12-22T07:48:58;35.38;;;23.48;;
42146;SDS011;27815;43.410;11.852;2022-12-22T07:53:38;38.35;;;24.98;;
42146;SDS011;27815;43.410;11.852;2022-12-22T07:57:59;44.03;;;29.25;;
42146;SDS011;27815;43.410;11.852;2022-12-22T08:02:21;36.28;;;26.17;;
42146;SDS011;27815;43.410;11.852;2022-12-22T08:06:42;37.78;;;27.13;;
42146;SDS011;27815;43.410;11.852;2022-12-22T08:11:04;43.47;;;28.90;;
42146;SDS011;27815;43.410;11.852;2022-12-22T08:15:26;41.85;;;28.08;;
42146;SDS011;27815;43.410;11.852;2022-12-22T08:19:47;39.10;;;28.83;;
42146;SDS011;27815;43.410;11.852;2022-12-22T08:24:11;40.13;;;27.30;;
42146;SDS011;27815;43.410;11.852;2022-12-22T08:28:14;42.85;;;28.85;;
42146;SDS011;27815;43.410;11.852;2022-12-22T08:32:37;48.67;;;30.17;;
42146;SDS011;27815;43.410;11.852;2022-12-22T08:36:43;43.58;;;30.60;;
42146;SDS011;27815;43.410;11.852;2022-12-22T08:41:09;48.22;;;32.58;;
42146;SDS011;27815;43.410;11.852;2022-12-22T08:45:15;57.53;;;38.17;;
42146;SDS011;27815;43.410;11.852;2022-12-22T08:49:18;45.83;;;31.25;;
42146;SDS011;27815;43.410;11.852;2022-12-22T08:53:21;53.55;;;35.42;;
42146;SDS011;27815;43.410;11.852;2022-12-22T08:57:47;50.28;;;33.20;;
42146;SDS011;27815;43.410;11.852;2022-12-22T09:01:57;45.22;;;30.42;;
42146;SDS011;27815;43.410;11.852;2022-12-22T09:06:06;43.30;;;30.10;;
42146;SDS011;27815;43.410;11.852;2022-12-22T09:10:10;48.78;;;31.42;;
42146;SDS011;27815;43.410;11.852;2022-12-22T09:14:15;38.97;;;27.50;;
42146;SDS011;27815;43.410;11.852;2022-12-22T09:18:19;46.40;;;32.13;;
42146;SDS011;27815;43.410;11.852;2022-12-22T09:22:21;44.88;;;32.05;;
42146;SDS011;27815;43.410;11.852;2022-12-22T09:26:29;54.00;;;33.13;;
42146;SDS011;27815;43.410;11.852;2022-12-22T09:30:33;48.97;;;33.90;;
42146;SDS011;27815;43.410;11.852;2022-12-22T09:34:36;52.72;;;32.97;;
42146;SDS011;27815;43.410;11.852;2022-12-22T09:38:39;52.47;;;32.72;;
42146;SDS011;27815;43.410;11.852;2022-12-22T09:42:42;46.83;;;31.08;;
42146;SDS011;27815;43.410;11.852;2022-12-22T09:51:17;47.70;;;32.25;;
42146;SDS011;27815;43.410;11.852;2022-12-22T10:00:51;47.45;;;31.58;;
42146;SDS011;27815;43.410;11.852;2022-12-22T10:09:29;48.17;;;33.28;;
42146;SDS011;27815;43.410;11.852;2022-12-22T10:14:18;51.15;;;33.58;;
42146;SDS011;27815;43.410;11.852;2022-12-22T10:35:18;50.25;;;34.17;;
42146;SDS011;27815;43.410;11.852;2022-12-22T10:39:24;49.10;;;33.92;;
42146;SDS011;27815;43.410;11.852;2022-12-22T10:43:36;53.40;;;34.47;;
42146;SDS011;27815;43.410;11.852;2022-12-22T10:47:43;53.00;;;35.60;;
42146;SDS011;27815;43.410;11.852;2022-12-22T10:51:55;42.67;;;29.75;;
42146;SDS011;27815;43.410;11.852;2022-12-22T10:56:38;48.15;;;30.52;;
42146;SDS011;27815;43.410;11.852;2022-12-22T11:00:59;45.47;;;31.52;;
42146;SDS011;27815;43.410;11.852;2022-12-22T11:06:20;42.90;;;31.15;;
42146;SDS011;27815;43.410;11.852;2022-12-22T11:24:49;41.55;;;29.88;;
42146;SDS011;27815;43.410;11.852;2022-12-22T11:34:16;41.17;;;30.25;;
42146;SDS011;27815;43.410;11.852;2022-12-22T11:56:23;46.13;;;32.88;;
42146;SDS011;27815;43.410;11.852;2022-12-22T12:00:43;45.42;;;32.25;;
42146;SDS011;27815;43.410;11.852;2022-12-22T12:09:43;43.10;;;32.25;;
42146;SDS011;27815;43.410;11.852;2022-12-22T12:27:43;42.55;;;31.00;;
42146;SDS011;27815;43.410;11.852;2022-12-22T12:32:05;38.47;;;28.95;;
42146;SDS011;27815;43.410;11.852;2022-12-22T12:36:28;37.38;;;27.27;;
42146;SDS011;27815;43.410;11.852;2022-12-22T12:40:56;34.42;;;25.30;;
42146;SDS011;27815;43.410;11.852;2022-12-22T12:49:52;43.55;;;29.30;;
42146;SDS011;27815;43.410;11.852;2022-12-22T12:54:20;41.83;;;28.15;;
42146;SDS011;27815;43.410;11.852;2022-12-22T13:02:47;42.00;;;32.25;;
42146;SDS011;27815;43.410;11.852;2022-12-22T13:06:58;45.28;;;33.13;;
42146;SDS011;27815;43.410;11.852;2022-12-22T13:15:24;44.33;;;31.90;;
42146;SDS011;27815;43.410;11.852;2022-12-22T13:19:37;40.28;;;30.92;;
42146;SDS011;27815;43.410;11.852;2022-12-22T13:23:41;39.60;;;30.80;;
42146;SDS011;27815;43.410;11.852;2022-12-22T13:28:10;43.35;;;30.30;;
42146;SDS011;27815;43.410;11.852;2022-12-22T13:32:27;40.70;;;29.40;;
42146;SDS011;27815;43.410;11.852;2022-12-22T13:36:34;49.97;;;37.47;;
42146;SDS011;27815;43.410;11.852;2022-12-22T13:40:39;62.03;;;40.45;;
42146;SDS011;27815;43.410;11.852;2022-12-22T13:44:45;45.70;;;33.63;;
42146;SDS011;27815;43.410;11.852;2022-12-22T13:48:48;44.90;;;34.35;;
42146;SDS011;27815;43.410;11.852;2022-12-22T13:52:54;50.75;;;36.67;;
42146;SDS011;27815;43.410;11.852;2022-12-22T13:56:59;50.50;;;36.00;;
42146;SDS011;27815;43.410;11.852;2022-12-22T14:05:13;44.78;;;33.42;;
42146;SDS011;27815;43.410;11.852;2022-12-22T14:13:29;43.88;;;33.42;;
42146;SDS011;27815;43.410;11.852;2022-12-22T14:17:38;45.05;;;34.22;;
42146;SDS011;27815;43.410;11.852;2022-12-22T14:21:59;42.38;;;30.60;;
42146;SDS011;27815;43.410;11.852;2022-12-22T14:26:12;25.15;;;17.40;;
42146;SDS011;27815;43.410;11.852;2022-12-22T14:30:27;17.60;;;11.50;;
42146;SDS011;27815;43.410;11.852;2022-12-22T14:34:39;15.98;;;10.45;;
42146;SDS011;27815;43.410;11.852;2022-12-22T14:38:44;13.70;;;8.80;;
42146;SDS011;27815;43.410;11.852;2022-12-22T14:42:50;14.27;;;9.70;;
42146;SDS011;27815;43.410;11.852;2022-12-22T14:51:24;32.78;;;24.85;;
42146;SDS011;27815;43.410;11.852;2022-12-22T14:59:37;50.03;;;39.95;;
42146;SDS011;27815;43.410;11.852;2022-12-22T15:03:40;23.10;;;16.65;;
42146;SDS011;27815;43.410;11.852;2022-12-22T15:07:45;23.05;;;16.63;;
42146;SDS011;27815;43.410;11.852;2022-12-22T15:12:14;24.05;;;16.42;;
42146;SDS011;27815;43.410;11.852;2022-12-22T15:16:22;22.40;;;16.75;;
42146;SDS011;27815;43.410;11.852;2022-12-22T15:20:25;26.38;;;20.70;;
42146;SDS011;27815;43.410;11.852;2022-12-22T15:24:42;24.90;;;19.98;;
42146;SDS011;27815;43.410;11.852;2022-12-22T15:28:46;29.13;;;22.02;;
42146;SDS011;27815;43.410;11.852;2022-12-22T15:32:49;28.73;;;21.50;;
42146;SDS011;27815;43.410;11.852;2022-12-22T15:36:52;26.40;;;22.05;;
42146;SDS011;27815;43.410;11.852;2022-12-22T15:40:55;30.73;;;24.88;;
42146;SDS011;27815;43.410;11.852;2022-12-22T15:44:58;28.38;;;20.85;;
42146;SDS011;27815;43.410;11.852;2022-12-22T15:49:01;31.17;;;21.85;;
42146;SDS011;27815;43.410;11.852;2022-12-22T15:53:04;26.25;;;19.58;;
42146;SDS011;27815;43.410;11.852;2022-12-22T15:57:11;31.88;;;24.67;;
42146;SDS011;27815;43.410;11.852;2022-12-22T16:01:15;34.53;;;26.13;;
42146;SDS011;27815;43.410;11.852;2022-12-22T16:05:18;55.47;;;39.50;;
42146;SDS011;27815;43.410;11.852;2022-12-22T16:09:25;32.47;;;25.73;;
42146;SDS011;27815;43.410;11.852;2022-12-22T16:13:30;39.35;;;29.05;;
42146;SDS011;27815;43.410;11.852;2022-12-22T16:17:34;39.95;;;31.15;;
42146;SDS011;27815;43.410;11.852;2022-12-22T16:21:38;37.45;;;27.15;;
42146;SDS011;27815;43.410;11.852;2022-12-22T16:25:42;40.35;;;28.88;;
42146;SDS011;27815;43.410;11.852;2022-12-22T16:29:47;37.63;;;29.17;;
42146;SDS011;27815;43.410;11.852;2022-12-22T16:33:55;43.17;;;30.27;;
42146;SDS011;27815;43.410;11.852;2022-12-22T16:37:58;36.72;;;28.40;;
42146;SDS011;27815;43.410;11.852;2022-12-22T16:42:01;34.90;;;25.20;;
42146;SDS011;27815;43.410;11.852;2022-12-22T16:46:04;35.65;;;27.08;;
42146;SDS011;27815;43.410;11.852;2022-12-22T16:50:18;38.15;;;30.17;;
42146;SDS011;27815;43.410;11.852;2022-12-22T16:54:33;38.08;;;29.50;;
42146;SDS011;27815;43.410;11.852;2022-12-22T16:58:36;39.90;;;28.65;;
42146;SDS011;27815;43.410;11.852;2022-12-22T17:02:39;48.78;;;35.95;;
42146;SDS011;27815;43.410;11.852;2022-12-22T17:06:42;44.30;;;33.17;;
42146;SDS011;27815;43.410;11.852;2022-12-22T17:10:48;50.22;;;35.40;;
42146;SDS011;27815;43.410;11.852;2022-12-22T17:14:55;48.53;;;35.08;;
42146;SDS011;27815;43.410;11.852;2022-12-22T17:18:59;46.03;;;30.50;;
42146;SDS011;27815;43.410;11.852;2022-12-22T17:23:02;47.92;;;31.75;;
42146;SDS011;27815;43.410;11.852;2022-12-22T17:27:05;41.83;;;30.77;;
42146;SDS011;27815;43.410;11.852;2022-12-22T17:31:13;51.53;;;36.22;;
42146;SDS011;27815;43.410;11.852;2022-12-22T17:35:21;50.03;;;36.92;;
42146;SDS011;27815;43.410;11.852;2022-12-22T17:39:26;50.35;;;34.95;;
42146;SDS011;27815;43.410;11.852;2022-12-22T17:43:29;52.35;;;36.88;;
42146;SDS011;27815;43.410;11.852;2022-12-22T17:47:33;55.35;;;37.05;;
42146;SDS011;27815;43.410;11.852;2022-12-22T17:51:44;69.55;;;43.78;;
42146;SDS011;27815;43.410;11.852;2022-12-22T17:55:48;55.50;;;38.33;;
42146;SDS011;27815;43.410;11.852;2022-12-22T18:00:14;65.72;;;44.33;;
42146;SDS011;27815;43.410;11.852;2022-12-22T18:04:19;51.13;;;37.47;;
42146;SDS011;27815;43.410;11.852;2022-12-22T18:08:23;54.15;;;38.50;;
42146;SDS011;27815;43.410;11.852;2022-12-22T18:12:26;59.65;;;42.75;;
42146;SDS011;27815;43.410;11.852;2022-12-22T18:16:31;62.38;;;44.30;;
42146;SDS011;27815;43.410;11.852;2022-12-22T18:20:34;55.70;;;42.38;;
42146;SDS011;27815;43.410;11.852;2022-12-22T18:24:37;53.65;;;37.03;;
42146;SDS011;27815;43.410;11.852;2022-12-22T18:28:39;54.60;;;38.70;;
42146;SDS011;27815;43.410;11.852;2022-12-22T18:32:42;51.58;;;38.53;;
42146;SDS011;27815;43.410;11.852;2022-12-22T18:36:45;46.65;;;35.08;;
42146;SDS011;27815;43.410;11.852;2022-12-22T18:40:49;46.65;;;29.02;;
42146;SDS011;27815;43.410;11.852;2022-12-22T18:44:52;39.88;;;29.17;;
42146;SDS011;27815;43.410;11.852;2022-12-22T18:48:55;35.75;;;28.00;;
42146;SDS011;27815;43.410;11.852;2022-12-22T18:53:16;38.22;;;29.17;;
42146;SDS011;27815;43.410;11.852;2022-12-22T18:57:25;43.85;;;29.33;;
42146;SDS011;27815;43.410;11.852;2022-12-22T19:01:28;43.58;;;31.63;;
42146;SDS011;27815;43.410;11.852;2022-12-22T19:05:31;49.33;;;33.63;;
42146;SDS011;27815;43.410;11.852;2022-12-22T19:09:37;44.03;;;31.65;;
42146;SDS011;27815;43.410;11.852;2022-12-22T19:13:42;44.92;;;32.97;;
42146;SDS011;27815;43.410;11.852;2022-12-22T19:17:48;50.03;;;32.75;;
42146;SDS011;27815;43.410;11.852;2022-12-22T19:21:52;48.90;;;33.20;;
42146;SDS011;27815;43.410;11.852;2022-12-22T19:26:00;48.13;;;36.33;;
42146;SDS011;27815;43.410;11.852;2022-12-22T19:30:14;54.83;;;38.00;;
42146;SDS011;27815;43.410;11.852;2022-12-22T19:34:20;54.17;;;38.75;;
42146;SDS011;27815;43.410;11.852;2022-12-22T19:38:24;57.05;;;42.58;;
42146;SDS011;27815;43.410;11.852;2022-12-22T19:42:33;59.13;;;38.83;;
42146;SDS011;27815;43.410;11.852;2022-12-22T19:46:36;42.95;;;32.75;;
42146;SDS011;27815;43.410;11.852;2022-12-22T19:50:39;51.80;;;36.97;;
42146;SDS011;27815;43.410;11.852;2022-12-22T19:54:43;42.97;;;31.52;;
42146;SDS011;27815;43.410;11.852;2022-12-22T19:58:46;43.22;;;30.60;;
42146;SDS011;27815;43.410;11.852;2022-12-22T20:02:50;39.88;;;29.98;;
42146;SDS011;27815;43.410;11.852;2022-12-22T20:06:56;41.30;;;27.55;;
42146;SDS011;27815;43.410;11.852;2022-12-22T20:10:58;38.17;;;28.58;;
42146;SDS011;27815;43.410;11.852;2022-12-22T20:15:13;45.92;;;32.65;;
42146;SDS011;27815;43.410;11.852;2022-12-22T20:19:22;52.78;;;35.85;;
42146;SDS011;27815;43.410;11.852;2022-12-22T20:23:25;55.13;;;38.15;;
42146;SDS011;27815;43.410;11.852;2022-12-22T20:27:32;62.00;;;41.63;;
42146;SDS011;27815;43.410;11.852;2022-12-22T20:31:36;52.03;;;38.45;;
42146;SDS011;27815;43.410;11.852;2022-12-22T20:35:40;52.85;;;37.22;;
42146;SDS011;27815;43.410;11.852;2022-12-22T20:39:44;45.53;;;34.10;;
42146;SDS011;27815;43.410;11.852;2022-12-22T20:43:48;48.17;;;34.13;;
42146;SDS011;27815;43.410;11.852;2022-12-22T20:47:52;48.33;;;32.10;;
42146;SDS011;27815;43.410;11.852;2022-12-22T20:51:56;39.90;;;31.88;;
42146;SDS011;27815;43.410;11.852;2022-12-22T20:55:59;33.58;;;24.90;;
42146;SDS011;27815;43.410;11.852;2022-12-22T21:00:02;32.72;;;21.63;;
42146;SDS011;27815;43.410;11.852;2022-12-22T21:04:06;31.58;;;22.88;;
42146;SDS011;27815;43.410;11.852;2022-12-22T21:08:13;54.78;;;40.38;;
42146;SDS011;27815;43.410;11.852;2022-12-22T21:12:22;43.38;;;33.10;;
42146;SDS011;27815;43.410;11.852;2022-12-22T21:16:25;41.05;;;31.40;;
42146;SDS011;27815;43.410;11.852;2022-12-22T21:20:31;42.37;;;31.30;;
42146;SDS011;27815;43.410;11.852;2022-12-22T21:24:35;48.67;;;34.53;;
42146;SDS011;27815;43.410;11.852;2022-12-22T21:28:38;43.45;;;31.80;;
42146;SDS011;27815;43.410;11.852;2022-12-22T21:32:41;30.30;;;20.98;;
42146;SDS011;27815;43.410;11.852;2022-12-22T21:36:44;20.77;;;15.18;;
42146;SDS011;27815;43.410;11.852;2022-12-22T21:40:49;75.53;;;50.83;;
42146;SDS011;27815;43.410;11.852;2022-12-22T21:44:52;60.22;;;41.42;;
42146;SDS011;27815;43.410;11.852;2022-12-22T21:48:55;63.63;;;39.17;;
42146;SDS011;27815;43.410;11.852;2022-12-22T21:52:58;69.75;;;43.75;;
42146;SDS011;27815;43.410;11.852;2022-12-22T21:57:01;67.85;;;42.42;;
42146;SDS011;27815;43.410;11.852;2022-12-22T22:01:07;65.25;;;42.95;;
42146;SDS011;27815;43.410;11.852;2022-12-22T22:09:36;158.48;;;55.72;;
42146;SDS011;27815;43.410;11.852;2022-12-22T22:13:39;84.07;;;46.78;;
42146;SDS011;27815;43.410;11.852;2022-12-22T22:17:43;113.03;;;47.75;;
42146;SDS011;27815;43.410;11.852;2022-12-22T22:21:46;137.18;;;49.63;;
42146;SDS011;27815;43.410;11.852;2022-12-22T22:25:57;165.25;;;53.25;;
42146;SDS011;27815;43.410;11.852;2022-12-22T22:30:00;348.90;;;59.17;;
42146;SDS011;27815;43.410;11.852;2022-12-22T22:34:06;167.65;;;50.03;;
42146;SDS011;27815;43.410;11.852;2022-12-22T22:39:03;178.90;;;54.20;;
